createdAt,value
2019-06-01T00:00:30.644Z,7.22
2019-06-01T00:03:02.491Z,6.60
2019-06-01T00:05:34.102Z,6.80
2019-06-01T00:08:05.859Z,6.92
2019-06-01T00:10:37.514Z,7.90
2019-06-01T00:13:09.266Z,6.97
2019-06-01T00:15:42.047Z,7.00
2019-06-01T00:18:13.496Z,6.92
2019-06-01T00:20:48.392Z,6.87
2019-06-01T00:23:20.795Z,7.10
2019-06-01T00:25:52.933Z,7.58
2019-06-01T00:30:56.988Z,9.45
2019-06-01T00:33:28.849Z,12.35
2019-06-01T00:36:01.322Z,11.88
2019-06-01T00:38:34.818Z,11.55
2019-06-01T00:41:06.269Z,11.55
2019-06-01T00:43:38.028Z,12.40
2019-06-01T00:46:09.632Z,11.45
2019-06-01T00:48:44.199Z,14.43
2019-06-01T00:51:15.929Z,13.90
2019-06-01T00:53:49.420Z,15.98
2019-06-01T00:56:21.108Z,15.18
2019-06-01T00:58:53.939Z,16.65
2019-06-01T01:01:26.252Z,17.23
2019-06-01T01:03:58.116Z,16.67
2019-06-01T01:06:32.539Z,17.00
2019-06-01T01:09:08.357Z,16.27
2019-06-01T01:11:40.051Z,17.50
2019-06-01T01:14:12.518Z,17.73
2019-06-01T01:16:45.536Z,18.62
2019-06-01T01:19:17.881Z,19.45
2019-06-01T01:21:52.140Z,20.20
2019-06-01T01:24:24.059Z,19.52
2019-06-01T01:26:56.796Z,19.00
2019-06-01T01:29:29.309Z,19.15
2019-06-01T01:32:01.379Z,18.75
2019-06-01T01:34:33.739Z,19.00
2019-06-01T01:37:05.802Z,17.32
2019-06-01T01:39:37.409Z,18.02
2019-06-01T01:42:09.153Z,18.35
2019-06-01T01:44:40.835Z,19.50
2019-06-01T01:47:14.445Z,19.60
2019-06-01T01:49:47.149Z,18.95
2019-06-01T01:52:19.004Z,17.62
2019-06-01T01:54:50.760Z,20.60
2019-06-01T01:57:22.824Z,20.88
2019-06-01T01:59:57.375Z,21.77
2019-06-01T02:02:31.048Z,20.23
2019-06-01T02:05:02.707Z,20.50
2019-06-01T02:07:35.076Z,21.45
2019-06-01T02:10:08.227Z,20.72
2019-06-01T02:12:39.713Z,18.65
2019-06-01T02:15:11.385Z,18.45
2019-06-01T02:17:43.938Z,17.27
2019-06-01T02:20:15.698Z,16.97
2019-06-01T02:22:49.813Z,16.50
2019-06-01T02:25:22.390Z,16.32
2019-06-01T02:27:55.050Z,17.27
2019-06-01T02:30:28.093Z,16.67
2019-06-01T02:33:00.695Z,16.02
2019-06-01T02:35:37.307Z,17.48
2019-06-01T02:38:09.055Z,16.12
2019-06-01T02:40:40.811Z,16.50
2019-06-01T02:43:15.982Z,16.30
2019-06-01T02:45:47.397Z,15.85
2019-06-01T02:48:19.462Z,14.63
2019-06-01T02:50:51.320Z,15.15
2019-06-01T02:53:23.115Z,15.13
2019-06-01T02:55:57.876Z,14.70
2019-06-01T02:58:30.176Z,15.77
2019-06-01T03:01:23.026Z,15.50
2019-06-01T03:03:57.619Z,16.48
2019-06-01T03:06:31.422Z,15.78
2019-06-01T03:09:06.683Z,15.15
2019-06-01T03:11:40.976Z,16.17
2019-06-01T03:14:14.000Z,15.78
2019-06-01T03:16:51.385Z,15.48
2019-06-01T03:19:25.910Z,15.18
2019-06-01T03:22:03.773Z,14.45
2019-06-01T03:24:37.407Z,14.98
2019-06-01T03:27:12.447Z,14.65
2019-06-01T03:29:47.367Z,14.38
2019-06-01T03:32:35.373Z,14.87
2019-06-01T03:34:55.442Z,14.20
2019-06-01T03:37:28.303Z,14.75
2019-06-01T03:42:33.110Z,16.07
2019-06-01T03:45:07.548Z,14.95
2019-06-01T03:47:39.285Z,17.55
2019-06-01T03:50:11.252Z,16.67
2019-06-01T03:52:43.315Z,15.98
2019-06-01T03:55:15.171Z,16.10
2019-06-01T03:57:46.928Z,15.90
2019-06-01T04:00:20.320Z,24.07
2019-06-01T04:02:51.672Z,16.35
2019-06-01T04:05:24.450Z,15.67
2019-06-01T04:07:58.635Z,16.02
2019-06-01T04:10:30.524Z,16.80
2019-06-01T04:13:03.522Z,16.55
2019-06-01T04:15:35.935Z,22.02
2019-06-01T04:18:08.602Z,17.95
2019-06-01T04:20:41.767Z,19.90
2019-06-01T04:23:13.206Z,16.73
2019-06-01T04:25:46.009Z,15.32
2019-06-01T04:28:19.170Z,16.23
2019-06-01T04:30:50.768Z,16.00
2019-06-01T04:33:23.608Z,14.70
2019-06-01T04:35:55.662Z,13.65
2019-06-01T04:38:31.008Z,13.83
2019-06-01T04:41:03.558Z,13.90
2019-06-01T04:43:36.060Z,13.93
2019-06-01T04:46:08.205Z,15.48
2019-06-01T04:48:41.104Z,16.65
2019-06-01T04:51:13.506Z,16.00
2019-06-01T04:53:45.459Z,18.25
2019-06-01T04:56:18.728Z,21.68
2019-06-01T04:58:50.482Z,22.67
2019-06-01T05:01:22.245Z,23.38
2019-06-01T05:03:53.900Z,20.90
2019-06-01T05:06:25.543Z,18.65
2019-06-01T05:08:57.174Z,18.00
2019-06-01T05:11:29.377Z,18.02
2019-06-01T05:14:00.718Z,18.70
2019-06-01T05:16:32.728Z,16.70
2019-06-01T05:19:05.958Z,16.00
2019-06-01T05:21:37.427Z,17.07
2019-06-01T05:24:10.588Z,16.15
2019-06-01T05:26:44.935Z,15.95
2019-06-01T05:29:18.122Z,16.15
2019-06-01T05:31:51.708Z,16.70
2019-06-01T05:34:23.790Z,16.63
2019-06-01T05:36:56.768Z,15.32
2019-06-01T05:39:28.314Z,15.68
2019-06-01T05:42:00.181Z,16.20
2019-06-01T05:44:31.964Z,14.50
2019-06-01T05:47:03.987Z,14.38
2019-06-01T05:49:35.785Z,13.03
2019-06-01T05:52:07.417Z,13.85
2019-06-01T05:54:38.957Z,11.70
2019-06-01T05:57:11.010Z,11.45
2019-06-01T05:59:43.500Z,13.05
2019-06-01T06:02:17.454Z,12.40
2019-06-01T06:04:49.075Z,12.28
2019-06-01T06:07:20.820Z,11.88
2019-06-01T06:09:52.593Z,13.35
2019-06-01T06:12:24.330Z,13.68
2019-06-01T06:14:57.519Z,11.48
2019-06-01T06:17:29.175Z,11.80
2019-06-01T06:20:01.343Z,13.50
2019-06-01T06:22:35.156Z,12.75
2019-06-01T06:25:07.249Z,12.93
2019-06-01T06:27:39.170Z,13.03
2019-06-01T06:30:12.817Z,13.15
2019-06-01T06:32:44.731Z,14.68
2019-06-01T06:35:17.749Z,13.53
2019-06-01T06:37:49.884Z,13.00
2019-06-01T06:40:24.279Z,13.58
2019-06-01T06:42:57.696Z,13.93
2019-06-01T06:45:31.981Z,12.65
2019-06-01T06:50:35.323Z,14.15
2019-06-01T06:53:08.993Z,13.80
2019-06-01T06:55:40.716Z,14.80
2019-06-01T06:58:13.765Z,13.55
2019-06-01T07:00:45.403Z,15.15
2019-06-01T07:03:17.198Z,12.93
2019-06-01T07:05:49.649Z,13.87
2019-06-01T07:08:21.873Z,12.78
2019-06-01T07:10:53.794Z,16.17
2019-06-01T07:13:25.496Z,20.10
2019-06-01T07:15:57.598Z,21.45
2019-06-01T07:18:30.090Z,19.15
2019-06-01T07:21:01.529Z,17.85
2019-06-01T07:23:33.548Z,14.25
2019-06-01T07:26:06.197Z,11.43
2019-06-01T07:28:39.553Z,13.08
2019-06-01T07:31:12.537Z,12.13
2019-06-01T07:33:44.136Z,12.28
2019-06-01T07:36:18.110Z,12.63
2019-06-01T07:38:49.553Z,12.68
2019-06-01T07:41:22.640Z,13.05
2019-06-01T07:43:54.496Z,11.85
2019-06-01T07:46:26.924Z,12.93
2019-06-01T07:48:59.752Z,12.78
2019-06-01T07:51:31.687Z,14.07
2019-06-01T07:54:04.395Z,13.38
2019-06-01T07:56:35.954Z,14.43
2019-06-01T07:59:07.798Z,9.00
2019-06-01T08:01:41.305Z,10.28
2019-06-01T08:04:12.954Z,10.23
2019-06-01T08:06:48.103Z,9.85
2019-06-01T08:11:49.475Z,8.95
2019-06-01T08:14:22.538Z,12.45
2019-06-01T08:16:54.325Z,10.72
2019-06-01T08:19:28.039Z,10.25
2019-06-01T08:21:59.661Z,9.85
2019-06-01T08:24:32.841Z,12.07
2019-06-01T08:27:05.512Z,10.38
2019-06-01T08:29:36.769Z,12.20
2019-06-01T08:32:08.418Z,12.18
2019-06-01T08:34:43.354Z,10.43
2019-06-01T08:37:14.802Z,12.53
2019-06-01T08:39:46.245Z,10.53
2019-06-01T08:42:17.975Z,10.30
2019-06-01T08:44:49.652Z,10.68
2019-06-01T08:47:21.416Z,8.88
2019-06-01T08:49:53.684Z,8.45
2019-06-01T08:52:25.973Z,8.23
2019-06-01T08:54:57.403Z,9.03
2019-06-01T08:57:30.367Z,9.00
2019-06-01T09:00:02.212Z,7.83
2019-06-01T09:02:34.964Z,5.60
2019-06-01T09:05:23.364Z,4.58
2019-06-01T09:07:42.843Z,5.22
2019-06-01T09:10:14.854Z,4.80
2019-06-01T09:12:46.250Z,5.33
2019-06-01T09:15:18.876Z,4.22
2019-06-01T09:17:50.788Z,3.58
2019-06-01T09:20:22.337Z,5.00
2019-06-01T09:22:54.101Z,4.03
2019-06-01T09:25:25.904Z,5.62
2019-06-01T09:27:58.132Z,3.83
2019-06-01T09:30:32.187Z,5.03
2019-06-01T09:33:03.885Z,4.83
2019-06-01T09:35:52.609Z,4.08
2019-06-01T09:38:11.401Z,4.22
2019-06-01T09:40:46.846Z,3.75
2019-06-01T09:43:19.723Z,4.08
2019-06-01T09:45:53.183Z,4.12
2019-06-01T09:48:24.578Z,4.87
2019-06-01T09:50:56.323Z,4.45
2019-06-01T09:53:31.062Z,3.72
2019-06-01T09:56:05.545Z,4.00
2019-06-01T09:58:36.938Z,3.60
2019-06-01T10:01:08.718Z,3.87
2019-06-01T10:03:41.149Z,3.95
2019-06-01T10:06:14.156Z,3.85
2019-06-01T10:08:45.895Z,3.87
2019-06-01T10:11:17.599Z,5.45
2019-06-01T10:13:49.203Z,4.90
2019-06-01T10:16:22.205Z,4.42
2019-06-01T10:19:10.222Z,5.67
2019-06-01T10:21:57.954Z,5.90
2019-06-01T10:24:30.970Z,4.75
2019-06-01T10:27:04.825Z,4.50
2019-06-01T10:29:39.993Z,4.22
2019-06-01T10:32:11.756Z,4.90
2019-06-01T10:34:43.548Z,3.90
2019-06-01T10:37:15.450Z,6.87
2019-06-01T10:39:49.244Z,4.10
2019-06-01T10:42:23.476Z,5.72
2019-06-01T10:44:56.459Z,4.42
2019-06-01T10:47:28.011Z,3.90
2019-06-01T10:50:03.655Z,4.70
2019-06-01T10:52:36.556Z,5.55
2019-06-01T10:55:08.505Z,3.90
2019-06-01T10:57:40.622Z,3.58
2019-06-01T11:00:14.425Z,5.42
2019-06-01T11:05:18.278Z,4.05
2019-06-01T11:07:49.835Z,4.12
2019-06-01T11:10:24.268Z,4.37
2019-06-01T11:12:56.055Z,4.63
2019-06-01T11:15:28.021Z,4.35
2019-06-01T11:18:01.489Z,5.17
2019-06-01T11:23:05.700Z,3.90
2019-06-01T11:25:38.091Z,7.70
2019-06-01T11:28:11.273Z,4.00
2019-06-01T11:30:43.968Z,4.37
2019-06-01T11:35:48.887Z,6.35
2019-06-01T11:38:21.773Z,6.10
2019-06-01T11:40:53.449Z,4.55
2019-06-01T11:43:27.547Z,4.30
2019-06-01T11:48:30.965Z,7.03
2019-06-01T11:51:02.815Z,4.15
2019-06-01T11:53:39.773Z,3.60
2019-06-01T11:56:11.597Z,3.12
